Time,TemperatureF,DewpointF,PressureIn,WindDirection,WindDirectionDegrees,WindSpeedMPH,WindSpeedGustMPH,Humidity,HourlyPrecipIn,Conditions,Clouds,dailyrainin,SoftwareType,DateUTC
2013-01-14 00:04:00,24.0,17.0,30.09,WSW,238,5.0,12.0,73,0.00,,,0.21,,2013-01-14 05:04:00,
2013-01-14 00:12:00,24.0,17.0,30.09,WSW,238,5.0,12.0,73,0.00,,,0.21,,2013-01-14 05:12:00,
2013-01-14 00:22:00,24.0,17.0,30.09,WSW,238,5.0,12.0,73,0.00,,,0.21,,2013-01-14 05:22:00,
2013-01-14 00:33:00,24.0,16.0,30.10,WNW,289,2.0,12.0,72,0.00,,,0.20,,2013-01-14 05:33:00,
2013-01-14 00:42:00,24.0,16.0,30.10,WNW,289,2.0,12.0,72,0.00,,,0.20,,2013-01-14 05:42:00,
2013-01-14 00:53:00,24.0,16.0,30.10,WNW,289,2.0,12.0,72,0.00,,,0.20,,2013-01-14 05:53:00,
2013-01-14 01:03:00,24.0,17.0,30.11,WSW,244,6.0,14.0,73,0.00,,,0.19,,2013-01-14 06:03:00,
2013-01-14 01:12:00,24.0,17.0,30.11,WSW,244,6.0,14.0,73,0.00,,,0.19,,2013-01-14 06:12:00,
2013-01-14 01:23:00,24.0,17.0,30.11,WSW,244,6.0,14.0,73,0.00,,,0.19,,2013-01-14 06:23:00,
2013-01-14 01:33:00,23.0,16.0,30.13,NW,317,5.0,16.0,73,0.00,,,0.18,,2013-01-14 06:33:00,
2013-01-14 01:43:00,23.0,16.0,30.13,NW,317,5.0,16.0,73,0.00,,,0.18,,2013-01-14 06:43:00,
2013-01-14 01:53:00,23.0,16.0,30.13,NW,317,5.0,16.0,73,0.00,,,0.18,,2013-01-14 06:53:00,
2013-01-14 02:02:00,22.0,15.0,30.15,WNW,296,3.0,12.0,73,0.00,,,0.17,,2013-01-14 07:02:00,
2013-01-14 02:12:00,22.0,15.0,30.15,WNW,296,3.0,12.0,73,0.00,,,0.17,,2013-01-14 07:12:00,
2013-01-14 02:23:00,22.0,15.0,30.15,WNW,296,3.0,12.0,73,0.00,,,0.17,,2013-01-14 07:23:00,
2013-01-14 02:33:00,22.0,15.0,30.17,NW,315,6.0,14.0,73,0.00,,,0.16,,2013-01-14 07:33:00,
2013-01-14 02:42:00,22.0,15.0,30.17,NW,315,6.0,14.0,73,0.00,,,0.16,,2013-01-14 07:42:00,
2013-01-14 02:53:00,22.0,15.0,30.17,NW,315,6.0,14.0,73,0.00,,,0.16,,2013-01-14 07:53:00,
2013-01-14 03:02:00,22.0,15.0,30.18,WNW,298,3.0,8.0,73,0.00,,,0.13,,2013-01-14 08:02:00,
2013-01-14 03:12:00,22.0,15.0,30.18,WNW,298,3.0,8.0,73,0.00,,,0.13,,2013-01-14 08:12:00,
2013-01-14 03:22:00,22.0,15.0,30.18,WNW,298,3.0,8.0,73,0.00,,,0.13,,2013-01-14 08:22:00,
2013-01-14 03:33:00,21.0,14.0,30.20,WNW,298,5.0,13.0,74,0.00,,,0.11,,2013-01-14 08:33:00,
2013-01-14 03:42:00,21.0,14.0,30.20,WNW,298,5.0,13.0,74,0.00,,,0.11,,2013-01-14 08:42:00,
2013-01-14 03:53:00,21.0,14.0,30.20,WNW,298,5.0,13.0,74,0.00,,,0.11,,2013-01-14 08:53:00,
2013-01-14 04:03:00,21.0,14.0,30.22,WNW,299,3.0,16.0,74,0.00,,,0.10,,2013-01-14 09:03:00,
2013-01-14 04:12:00,21.0,14.0,30.22,WNW,299,3.0,16.0,74,0.00,,,0.10,,2013-01-14 09:12:00,
2013-01-14 04:23:00,21.0,14.0,30.22,WNW,299,3.0,16.0,74,0.00,,,0.10,,2013-01-14 09:23:00,
2013-01-14 04:33:00,21.0,14.0,30.24,WNW,286,5.0,12.0,74,0.00,,,0.06,,2013-01-14 09:33:00,
2013-01-14 04:43:00,21.0,14.0,30.24,WNW,286,5.0,12.0,74,0.00,,,0.06,,2013-01-14 09:43:00,
2013-01-14 04:53:00,21.0,14.0,30.24,WNW,286,5.0,12.0,74,0.00,,,0.06,,2013-01-14 09:53:00,
2013-01-14 05:02:00,21.0,14.0,30.25,West,274,5.0,12.0,73,0.00,,,0.03,,2013-01-14 10:02:00,
2013-01-14 05:12:00,21.0,14.0,30.25,West,274,5.0,12.0,73,0.00,,,0.03,,2013-01-14 10:12:00,
2013-01-14 05:23:00,21.0,14.0,30.25,West,274,5.0,12.0,73,0.00,,,0.03,,2013-01-14 10:23:00,
2013-01-14 05:32:00,20.0,12.0,30.26,West,281,3.0,9.0,71,0.00,,,0.01,,2013-01-14 10:32:00,
2013-01-14 05:42:00,20.0,12.0,30.26,West,281,3.0,9.0,71,0.00,,,0.01,,2013-01-14 10:42:00,
2013-01-14 05:53:00,20.0,12.0,30.26,West,281,3.0,9.0,71,0.00,,,0.01,,2013-01-14 10:53:00,
2013-01-14 06:02:00,20.0,13.0,30.27,West,265,3.0,10.0,74,0.00,,,0.01,,2013-01-14 11:02:00,
2013-01-14 06:12:00,20.0,13.0,30.27,West,265,3.0,10.0,74,0.00,,,0.01,,2013-01-14 11:12:00,
2013-01-14 06:22:00,20.0,13.0,30.27,West,265,3.0,10.0,74,0.00,,,0.01,,2013-01-14 11:22:00,
2013-01-14 06:33:00,21.0,14.0,30.29,West,272,5.0,7.0,74,0.00,,,0.01,,2013-01-14 11:33:00,
2013-01-14 06:43:00,21.0,14.0,30.29,West,272,5.0,7.0,74,0.00,,,0.01,,2013-01-14 11:43:00,
2013-01-14 06:53:00,21.0,14.0,30.29,West,272,5.0,7.0,74,0.00,,,0.01,,2013-01-14 11:53:00,
2013-01-14 07:03:00,21.0,14.0,30.30,WSW,249,2.0,7.0,75,0.00,,,0.01,,2013-01-14 12:03:00,
2013-01-14 07:12:00,21.0,14.0,30.30,WSW,249,2.0,7.0,75,0.00,,,0.01,,2013-01-14 12:12:00,
2013-01-14 07:23:00,21.0,14.0,30.30,WSW,249,2.0,7.0,75,0.00,,,0.01,,2013-01-14 12:23:00,
2013-01-14 07:33:00,21.0,14.0,30.32,West,259,2.0,7.0,74,0.00,,,0.01,,2013-01-14 12:33:00,
2013-01-14 07:43:00,21.0,14.0,30.32,West,259,2.0,7.0,74,0.00,,,0.01,,2013-01-14 12:43:00,
2013-01-14 07:53:00,21.0,14.0,30.32,West,259,2.0,7.0,74,0.00,,,0.01,,2013-01-14 12:53:00,
2013-01-14 08:03:00,21.0,14.0,30.34,West,275,2.0,12.0,73,0.00,,,0.01,,2013-01-14 13:03:00,
2013-01-14 08:12:00,21.0,14.0,30.34,West,275,2.0,12.0,73,0.00,,,0.01,,2013-01-14 13:12:00,
2013-01-14 08:23:00,21.0,14.0,30.34,West,275,2.0,12.0,73,0.00,,,0.01,,2013-01-14 13:23:00,
2013-01-14 08:33:00,21.0,14.0,30.35,NW,319,2.0,7.0,75,0.00,,,0.01,,2013-01-14 13:33:00,
2013-01-14 08:43:00,21.0,14.0,30.35,NW,319,2.0,7.0,75,0.00,,,0.01,,2013-01-14 13:43:00,
2013-01-14 08:53:00,21.0,14.0,30.35,NW,319,2.0,7.0,75,0.00,,,0.01,,2013-01-14 13:53:00,
2013-01-14 09:03:00,21.0,15.0,30.37,NW,315,3.0,8.0,76,0.00,,,0.01,,2013-01-14 14:03:00,
2013-01-14 09:13:00,21.0,15.0,30.37,NW,315,3.0,8.0,76,0.00,,,0.01,,2013-01-14 14:13:00,
2013-01-14 09:23:00,21.0,15.0,30.37,NW,315,3.0,8.0,76,0.00,,,0.01,,2013-01-14 14:23:00,
2013-01-14 09:33:00,21.0,15.0,30.39,WNW,294,2.0,9.0,76,0.00,,,0.00,,2013-01-14 14:33:00,
2013-01-14 09:43:00,21.0,15.0,30.39,WNW,294,2.0,9.0,76,0.00,,,0.00,,2013-01-14 14:43:00,
2013-01-14 09:53:00,21.0,15.0,30.39,WNW,294,2.0,9.0,76,0.00,,,0.00,,2013-01-14 14:53:00,
2013-01-14 10:03:00,22.0,16.0,30.40,West,275,3.0,7.0,76,0.00,,,0.00,,2013-01-14 15:03:00,
2013-01-14 10:12:00,22.0,16.0,30.40,West,275,3.0,7.0,76,0.00,,,0.00,,2013-01-14 15:12:00,
2013-01-14 10:23:00,22.0,16.0,30.40,West,275,3.0,7.0,76,0.00,,,0.00,,2013-01-14 15:23:00,
2013-01-14 10:33:00,22.0,16.0,30.39,West,268,2.0,9.0,76,0.00,,,0.00,,2013-01-14 15:33:00,
2013-01-14 10:43:00,22.0,16.0,30.39,West,268,2.0,9.0,76,0.00,,,0.00,,2013-01-14 15:43:00,
2013-01-14 10:53:00,22.0,16.0,30.39,West,268,2.0,9.0,76,0.00,,,0.00,,2013-01-14 15:53:00,
2013-01-14 11:03:00,22.0,16.0,30.39,NNW,340,5.0,9.0,76,0.00,,,0.00,,2013-01-14 16:03:00,
2013-01-14 11:12:00,22.0,16.0,30.39,NNW,340,5.0,9.0,76,0.00,,,0.00,,2013-01-14 16:12:00,
2013-01-14 11:23:00,22.0,16.0,30.39,NNW,340,5.0,9.0,76,0.00,,,0.00,,2013-01-14 16:23:00,
2013-01-14 11:33:00,22.0,16.0,30.38,NNW,343,6.0,10.0,76,0.00,,,0.00,,2013-01-14 16:33:00,
2013-01-14 11:43:00,22.0,16.0,30.38,NNW,343,6.0,10.0,76,0.00,,,0.00,,2013-01-14 16:43:00,
2013-01-14 11:53:00,22.0,16.0,30.38,NNW,343,6.0,10.0,76,0.00,,,0.00,,2013-01-14 16:53:00,
2013-01-14 12:03:00,22.0,15.0,30.37,NNW,336,3.0,7.0,75,0.00,,,0.00,,2013-01-14 17:03:00,
2013-01-14 12:12:00,22.0,15.0,30.37,NNW,336,3.0,7.0,75,0.00,,,0.00,,2013-01-14 17:12:00,
2013-01-14 12:23:00,22.0,15.0,30.37,NNW,336,3.0,7.0,75,0.00,,,0.00,,2013-01-14 17:23:00,
2013-01-14 12:33:00,22.0,15.0,30.36,West,281,3.0,7.0,75,0.00,,,0.00,,2013-01-14 17:33:00,
2013-01-14 12:43:00,22.0,15.0,30.36,West,281,3.0,7.0,75,0.00,,,0.00,,2013-01-14 17:43:00,
2013-01-14 12:54:00,22.0,15.0,30.36,West,281,3.0,7.0,75,0.00,,,0.00,,2013-01-14 17:54:00,
2013-01-14 13:03:00,22.0,15.0,30.36,North,355,2.0,6.0,75,0.00,,,0.00,,2013-01-14 18:03:00,
2013-01-14 13:13:00,22.0,15.0,30.36,North,355,2.0,6.0,75,0.00,,,0.00,,2013-01-14 18:13:00,
2013-01-14 13:23:00,22.0,15.0,30.36,North,355,2.0,6.0,75,0.00,,,0.00,,2013-01-14 18:23:00,
2013-01-14 13:33:00,23.0,16.0,30.36,WNW,285,2.0,6.0,75,0.00,,,0.00,,2013-01-14 18:33:00,
2013-01-14 13:43:00,23.0,16.0,30.36,WNW,285,2.0,6.0,75,0.00,,,0.00,,2013-01-14 18:43:00,
2013-01-14 13:53:00,23.0,16.0,30.36,WNW,285,2.0,6.0,75,0.00,,,0.00,,2013-01-14 18:53:00,
2013-01-14 14:03:00,25.0,18.0,30.35,WSW,258,3.0,12.0,73,0.00,,,0.00,,2013-01-14 19:03:00,
2013-01-14 14:13:00,25.0,18.0,30.35,WSW,258,3.0,12.0,73,0.00,,,0.00,,2013-01-14 19:13:00,
2013-01-14 14:22:00,25.0,18.0,30.35,WSW,258,3.0,12.0,73,0.00,,,0.00,,2013-01-14 19:22:00,
2013-01-14 14:33:00,25.0,17.0,30.37,West,276,4.0,9.0,72,0.00,,,0.00,,2013-01-14 19:33:00,
2013-01-14 14:43:00,25.0,17.0,30.37,West,276,4.0,9.0,72,0.00,,,0.00,,2013-01-14 19:43:00,
2013-01-14 14:53:00,25.0,17.0,30.37,West,276,4.0,9.0,72,0.00,,,0.00,,2013-01-14 19:53:00,
2013-01-14 15:03:00,25.0,17.0,30.38,NNW,336,2.0,5.0,72,0.00,,,0.00,,2013-01-14 20:03:00,
2013-01-14 15:13:00,25.0,17.0,30.38,NNW,336,2.0,5.0,72,0.00,,,0.00,,2013-01-14 20:13:00,
2013-01-14 15:23:00,25.0,17.0,30.38,NNW,336,2.0,5.0,72,0.00,,,0.00,,2013-01-14 20:23:00,
2013-01-14 15:33:00,24.0,17.0,30.41,WSW,244,5.0,8.0,73,0.00,,,0.00,,2013-01-14 20:33:00,
2013-01-14 15:43:00,24.0,17.0,30.41,WSW,244,5.0,8.0,73,0.00,,,0.00,,2013-01-14 20:43:00,
2013-01-14 15:53:00,24.0,17.0,30.41,WSW,244,5.0,8.0,73,0.00,,,0.00,,2013-01-14 20:53:00,
2013-01-14 16:03:00,24.0,17.0,30.40,WSW,254,2.0,7.0,73,0.00,,,0.00,,2013-01-14 21:03:00,
2013-01-14 16:12:00,24.0,17.0,30.40,WSW,254,2.0,7.0,73,0.00,,,0.00,,2013-01-14 21:12:00,
2013-01-14 16:23:00,24.0,17.0,30.40,WSW,254,2.0,7.0,73,0.00,,,0.00,,2013-01-14 21:23:00,
2013-01-14 16:33:00,25.0,18.0,30.41,West,261,3.0,7.0,73,0.00,,,0.00,,2013-01-14 21:33:00,
2013-01-14 16:43:00,25.0,18.0,30.41,West,261,3.0,7.0,73,0.00,,,0.00,,2013-01-14 21:43:00,
2013-01-14 16:53:00,25.0,18.0,30.41,West,261,3.0,7.0,73,0.00,,,0.00,,2013-01-14 21:53:00,
2013-01-14 17:03:00,24.0,17.0,30.40,WSW,258,3.0,8.0,73,0.00,,,0.00,,2013-01-14 22:03:00,
2013-01-14 17:12:00,24.0,17.0,30.40,WSW,258,3.0,8.0,73,0.00,,,0.00,,2013-01-14 22:12:00,
2013-01-14 17:23:00,24.0,17.0,30.40,WSW,258,3.0,8.0,73,0.00,,,0.00,,2013-01-14 22:23:00,
2013-01-14 17:33:00,23.0,16.0,30.42,West,269,1.0,5.0,73,0.00,,,0.00,,2013-01-14 22:33:00,
2013-01-14 17:43:00,23.0,16.0,30.42,West,269,1.0,5.0,73,0.00,,,0.00,,2013-01-14 22:43:00,
2013-01-14 17:53:00,23.0,16.0,30.42,West,269,1.0,5.0,73,0.00,,,0.00,,2013-01-14 22:53:00,
2013-01-14 18:03:00,23.0,16.0,30.42,West,259,1.0,3.0,74,0.00,,,0.00,,2013-01-14 23:03:00,
2013-01-14 18:12:00,23.0,16.0,30.42,West,259,1.0,3.0,74,0.00,,,0.00,,2013-01-14 23:12:00,
2013-01-14 18:23:00,23.0,16.0,30.42,West,259,1.0,3.0,74,0.00,,,0.00,,2013-01-14 23:23:00,
2013-01-14 18:33:00,22.0,15.0,30.41,West,259,0.0,0.0,75,0.00,,,0.00,,2013-01-14 23:33:00,
2013-01-14 18:43:00,22.0,15.0,30.41,West,259,0.0,0.0,75,0.00,,,0.00,,2013-01-14 23:43:00,
2013-01-14 18:53:00,22.0,15.0,30.41,West,259,0.0,0.0,75,0.00,,,0.00,,2013-01-14 23:53:00,
2013-01-14 19:03:00,21.0,15.0,30.41,West,259,0.0,0.0,76,0.00,,,0.00,,2013-01-15 00:03:00,
2013-01-14 19:12:00,21.0,15.0,30.41,West,259,0.0,0.0,76,0.00,,,0.00,,2013-01-15 00:12:00,
2013-01-14 19:23:00,21.0,15.0,30.41,West,259,0.0,0.0,76,0.00,,,0.00,,2013-01-15 00:23:00,
2013-01-14 19:33:00,20.0,14.0,30.40,WSW,258,0.0,0.0,76,0.00,,,0.00,,2013-01-15 00:33:00,
2013-01-14 19:43:00,20.0,14.0,30.40,WSW,258,0.0,0.0,76,0.00,,,0.00,,2013-01-15 00:43:00,
2013-01-14 19:53:00,20.0,14.0,30.40,WSW,258,0.0,0.0,76,0.00,,,0.00,,2013-01-15 00:53:00,
2013-01-14 20:02:00,20.0,14.0,30.40,West,259,0.0,0.0,76,0.00,,,0.00,,2013-01-15 01:02:00,
2013-01-14 20:12:00,20.0,14.0,30.40,West,259,0.0,0.0,76,0.00,,,0.00,,2013-01-15 01:12:00,
2013-01-14 20:23:00,20.0,14.0,30.40,West,259,0.0,0.0,76,0.00,,,0.00,,2013-01-15 01:23:00,
2013-01-14 20:32:00,19.0,13.0,30.40,West,259,0.0,0.0,76,0.00,,,0.00,,2013-01-15 01:32:00,
2013-01-14 20:43:00,19.0,13.0,30.40,West,259,0.0,0.0,76,0.00,,,0.00,,2013-01-15 01:43:00,
2013-01-14 20:53:00,19.0,13.0,30.40,West,259,0.0,0.0,76,0.00,,,0.00,,2013-01-15 01:53:00,
2013-01-14 21:03:00,18.0,12.0,30.40,West,259,0.0,0.0,76,0.00,,,0.00,,2013-01-15 02:03:00,
2013-01-14 21:12:00,18.0,12.0,30.40,West,259,0.0,0.0,76,0.00,,,0.00,,2013-01-15 02:12:00,
2013-01-14 21:23:00,18.0,12.0,30.40,West,259,0.0,0.0,76,0.00,,,0.00,,2013-01-15 02:23:00,
2013-01-14 21:33:00,17.0,10.0,30.40,WSW,258,0.0,0.0,75,0.00,,,0.00,,2013-01-15 02:33:00,
2013-01-14 21:42:00,17.0,10.0,30.40,WSW,258,0.0,0.0,75,0.00,,,0.00,,2013-01-15 02:42:00,
2013-01-14 21:53:00,17.0,10.0,30.40,WSW,258,0.0,0.0,75,0.00,,,0.00,,2013-01-15 02:53:00,
2013-01-14 22:03:00,17.0,10.0,30.40,West,259,0.0,0.0,75,0.00,,,0.00,,2013-01-15 03:03:00,
2013-01-14 22:12:00,17.0,10.0,30.40,West,259,0.0,0.0,75,0.00,,,0.00,,2013-01-15 03:12:00,
2013-01-14 22:22:00,17.0,10.0,30.40,West,259,0.0,0.0,75,0.00,,,0.00,,2013-01-15 03:22:00,
2013-01-14 22:33:00,18.0,11.0,30.38,WSW,257,0.0,0.0,73,0.00,,,0.00,,2013-01-15 03:33:00,
2013-01-14 22:43:00,18.0,11.0,30.38,WSW,257,0.0,0.0,73,0.00,,,0.00,,2013-01-15 03:43:00,
2013-01-14 22:53:00,18.0,11.0,30.38,WSW,257,0.0,0.0,73,0.00,,,0.00,,2013-01-15 03:53:00,
2013-01-14 23:03:00,17.0,10.0,30.38,West,259,0.0,0.0,73,0.00,,,0.00,,2013-01-15 04:03:00,
2013-01-14 23:12:00,17.0,10.0,30.38,West,259,0.0,0.0,73,0.00,,,0.00,,2013-01-15 04:12:00,
2013-01-14 23:22:00,17.0,10.0,30.38,West,259,0.0,0.0,73,0.00,,,0.00,,2013-01-15 04:22:00,
2013-01-14 23:32:00,18.0,11.0,30.39,West,259,0.0,0.0,72,0.00,,,0.00,,2013-01-15 04:32:00,
2013-01-14 23:42:00,18.0,11.0,30.39,West,259,0.0,0.0,72,0.00,,,0.00,,2013-01-15 04:42:00,
2013-01-14 23:52:00,18.0,11.0,30.39,West,259,0.0,0.0,72,0.00,,,0.00,,2013-01-15 04:52:00,